sensor_id;sensor_type;location;lat;lon;timestamp;pressure;altitude;pressure_sealevel;temperature;humidity
76973;BME280;65907;53.640;10.050;2023-02-24T00:01:20;100677.53;;;22.92;38.95
76973;BME280;65907;53.640;10.050;2023-02-24T00:03:55;100665.66;;;22.88;38.86
76973;BME280;65907;53.640;10.050;2023-02-24T00:06:27;100665.00;;;22.86;38.75
76973;BME280;65907;53.640;10.050;2023-02-24T00:09:01;100659.06;;;22.84;38.83
76973;BME280;65907;53.640;10.050;2023-02-24T00:11:29;100654.78;;;22.83;38.79
76973;BME280;65907;53.640;10.050;2023-02-24T00:13:57;100647.19;;;22.90;38.90
76973;BME280;65907;53.640;10.050;2023-02-24T00:16:23;100650.09;;;22.87;38.87
76973;BME280;65907;53.640;10.050;2023-02-24T00:18:49;100652.16;;;22.83;38.67
76973;BME280;65907;53.640;10.050;2023-02-24T00:21:16;100646.09;;;22.83;38.63
76973;BME280;65907;53.640;10.050;2023-02-24T00:23:42;100641.69;;;22.83;38.82
76973;BME280;65907;53.640;10.050;2023-02-24T00:26:07;100645.28;;;22.82;38.75
76973;BME280;65907;53.640;10.050;2023-02-24T00:28:35;100643.44;;;22.92;38.67
76973;BME280;65907;53.640;10.050;2023-02-24T00:31:02;100647.06;;;22.82;38.66
76973;BME280;65907;53.640;10.050;2023-02-24T00:33:28;100642.53;;;22.84;38.57
76973;BME280;65907;53.640;10.050;2023-02-24T00:35:54;100641.97;;;22.80;38.84
76973;BME280;65907;53.640;10.050;2023-02-24T00:38:28;100635.22;;;22.77;38.40
76973;BME280;65907;53.640;10.050;2023-02-24T00:40:55;100631.31;;;22.82;38.50
76973;BME280;65907;53.640;10.050;2023-02-24T00:43:22;100629.69;;;22.81;38.75
76973;BME280;65907;53.640;10.050;2023-02-24T00:45:47;100616.44;;;22.82;38.59
76973;BME280;65907;53.640;10.050;2023-02-24T00:48:15;100620.16;;;22.80;38.48
76973;BME280;65907;53.640;10.050;2023-02-24T00:50:42;100622.50;;;22.83;38.44
76973;BME280;65907;53.640;10.050;2023-02-24T00:53:08;100618.00;;;22.75;38.62
76973;BME280;65907;53.640;10.050;2023-02-24T00:55:33;100615.38;;;22.75;38.44
76973;BME280;65907;53.640;10.050;2023-02-24T00:58:03;100609.53;;;22.81;38.39
76973;BME280;65907;53.640;10.050;2023-02-24T01:00:31;100611.78;;;22.76;38.56
76973;BME280;65907;53.640;10.050;2023-02-24T01:03:00;100607.72;;;22.82;38.54
76973;BME280;65907;53.640;10.050;2023-02-24T01:05:29;100609.53;;;22.81;38.48
76973;BME280;65907;53.640;10.050;2023-02-24T01:07:54;100601.81;;;22.80;38.36
76973;BME280;65907;53.640;10.050;2023-02-24T01:10:20;100597.16;;;22.73;38.52
76973;BME280;65907;53.640;10.050;2023-02-24T01:12:47;100601.00;;;22.79;38.47
76973;BME280;65907;53.640;10.050;2023-02-24T01:15:18;100592.44;;;22.77;38.13
76973;BME280;65907;53.640;10.050;2023-02-24T01:17:47;100599.09;;;22.71;38.27
76973;BME280;65907;53.640;10.050;2023-02-24T01:20:15;100598.81;;;22.74;38.33
76973;BME280;65907;53.640;10.050;2023-02-24T01:22:44;100592.44;;;22.77;38.46
76973;BME280;65907;53.640;10.050;2023-02-24T01:25:10;100592.44;;;22.77;38.50
76973;BME280;65907;53.640;10.050;2023-02-24T01:27:35;100583.06;;;22.74;38.20
76973;BME280;65907;53.640;10.050;2023-02-24T01:30:05;100576.44;;;22.80;38.34
76973;BME280;65907;53.640;10.050;2023-02-24T01:32:33;100578.00;;;22.73;38.54
76973;BME280;65907;53.640;10.050;2023-02-24T01:34:58;100572.59;;;22.74;38.33
76973;BME280;65907;53.640;10.050;2023-02-24T01:37:23;100574.41;;;22.74;38.33
76973;BME280;65907;53.640;10.050;2023-02-24T01:39:48;100565.56;;;22.75;38.08
76973;BME280;65907;53.640;10.050;2023-02-24T01:42:18;100558.50;;;22.75;38.19
76973;BME280;65907;53.640;10.050;2023-02-24T01:47:11;100557.94;;;22.82;37.94
76973;BME280;65907;53.640;10.050;2023-02-24T01:49:38;100553.66;;;22.81;37.98
76973;BME280;65907;53.640;10.050;2023-02-24T01:52:16;100553.53;;;22.82;38.21
76973;BME280;65907;53.640;10.050;2023-02-24T01:57:14;100541.44;;;22.71;38.09
76973;BME280;65907;53.640;10.050;2023-02-24T01:59:44;100542.78;;;22.75;38.01
76973;BME280;65907;53.640;10.050;2023-02-24T02:02:13;100534.38;;;22.72;38.21
76973;BME280;65907;53.640;10.050;2023-02-24T02:07:06;100532.03;;;22.69;38.20
76973;BME280;65907;53.640;10.050;2023-02-24T02:09:35;100534.66;;;22.69;38.10
76973;BME280;65907;53.640;10.050;2023-02-24T02:12:05;100525.56;;;22.73;38.04
76973;BME280;65907;53.640;10.050;2023-02-24T02:14:30;100525.56;;;22.73;37.99
76973;BME280;65907;53.640;10.050;2023-02-24T02:16:58;100517.16;;;22.69;37.99
76973;BME280;65907;53.640;10.050;2023-02-24T02:25:10;100497.84;;;22.70;37.78
76973;BME280;65907;53.640;10.050;2023-02-24T02:35:42;100480.72;;;22.76;37.55
76973;BME280;65907;53.640;10.050;2023-02-24T02:40:38;100478.38;;;22.73;37.68
76973;BME280;65907;53.640;10.050;2023-02-24T02:45:39;100474.25;;;22.70;37.67
76973;BME280;65907;53.640;10.050;2023-02-24T02:48:18;100474.94;;;22.72;37.85
76973;BME280;65907;53.640;10.050;2023-02-24T02:53:54;100463.59;;;22.72;37.67
76973;BME280;65907;53.640;10.050;2023-02-24T02:56:03;100465.56;;;22.70;37.88
76973;BME280;65907;53.640;10.050;2023-02-24T02:58:35;100464.31;;;22.74;37.61
76973;BME280;65907;53.640;10.050;2023-02-24T03:01:03;100456.59;;;22.72;37.64
76973;BME280;65907;53.640;10.050;2023-02-24T03:03:31;100453.41;;;22.69;37.82
76973;BME280;65907;53.640;10.050;2023-02-24T03:06:05;100449.44;;;22.65;37.91
76973;BME280;65907;53.640;10.050;2023-02-24T03:08:34;100448.84;;;22.71;37.62
76973;BME280;65907;53.640;10.050;2023-02-24T03:11:06;100443.09;;;22.67;37.54
76973;BME280;65907;53.640;10.050;2023-02-24T03:13:33;100441.97;;;22.70;37.59
76973;BME280;65907;53.640;10.050;2023-02-24T03:16:00;100432.44;;;22.69;37.91
76973;BME280;65907;53.640;10.050;2023-02-24T03:18:38;100431.63;;;22.68;37.59
76973;BME280;65907;53.640;10.050;2023-02-24T03:21:08;100429.69;;;22.70;37.87
76973;BME280;65907;53.640;10.050;2023-02-24T03:23:46;100426.03;;;22.63;37.81
76973;BME280;65907;53.640;10.050;2023-02-24T03:26:36;100420.09;;;22.61;37.85
76973;BME280;65907;53.640;10.050;2023-02-24T03:31:29;100414.28;;;22.67;37.47
76973;BME280;65907;53.640;10.050;2023-02-24T03:34:11;100407.75;;;22.71;37.52
76973;BME280;65907;53.640;10.050;2023-02-24T03:36:38;100403.91;;;22.66;37.84
76973;BME280;65907;53.640;10.050;2023-02-24T03:39:03;100405.56;;;22.67;37.40
76973;BME280;65907;53.640;10.050;2023-02-24T03:41:41;100398.00;;;22.63;37.57
76973;BME280;65907;53.640;10.050;2023-02-24T03:44:08;100393.91;;;22.61;37.78
76973;BME280;65907;53.640;10.050;2023-02-24T03:46:35;100400.63;;;22.63;37.41
76973;BME280;65907;53.640;10.050;2023-02-24T03:49:10;100387.38;;;22.65;37.60
76973;BME280;65907;53.640;10.050;2023-02-24T03:51:36;100398.91;;;22.72;37.15
76973;BME280;65907;53.640;10.050;2023-02-24T04:04:40;100395.75;;;22.69;37.15
76973;BME280;65907;53.640;10.050;2023-02-24T04:09:49;100387.09;;;22.68;37.52
76973;BME280;65907;53.640;10.050;2023-02-24T04:12:28;100386.41;;;22.66;37.34
76973;BME280;65907;53.640;10.050;2023-02-24T04:14:57;100383.63;;;22.68;37.32
76973;BME280;65907;53.640;10.050;2023-02-24T04:17:30;100388.72;;;22.69;37.37
76973;BME280;65907;53.640;10.050;2023-02-24T04:19:58;100385.56;;;22.66;37.16
76973;BME280;65907;53.640;10.050;2023-02-24T04:22:27;100378.69;;;22.65;37.52
76973;BME280;65907;53.640;10.050;2023-02-24T04:24:55;100373.31;;;22.66;37.04
76973;BME280;65907;53.640;10.050;2023-02-24T04:27:25;100374.28;;;22.65;37.26
76973;BME280;65907;53.640;10.050;2023-02-24T04:29:53;100371.97;;;22.62;37.04
76973;BME280;65907;53.640;10.050;2023-02-24T04:32:22;100364.09;;;22.62;37.41
76973;BME280;65907;53.640;10.050;2023-02-24T04:34:51;100361.63;;;22.60;37.23
76973;BME280;65907;53.640;10.050;2023-02-24T04:37:17;100368.06;;;22.66;37.22
76973;BME280;65907;53.640;10.050;2023-02-24T04:39:46;100358.56;;;22.65;36.95
76973;BME280;65907;53.640;10.050;2023-02-24T04:42:12;100358.09;;;22.70;37.05
76973;BME280;65907;53.640;10.050;2023-02-24T04:44:38;100350.03;;;22.63;37.20
76973;BME280;65907;53.640;10.050;2023-02-24T04:47:03;100348.22;;;22.63;37.41
76973;BME280;65907;53.640;10.050;2023-02-24T04:49:28;100347.16;;;22.74;36.86
76973;BME280;65907;53.640;10.050;2023-02-24T04:51:54;100344.47;;;22.66;37.33
76973;BME280;65907;53.640;10.050;2023-02-24T04:54:21;100340.34;;;22.63;37.37
76973;BME280;65907;53.640;10.050;2023-02-24T04:56:48;100339.69;;;22.61;37.07
76973;BME280;65907;53.640;10.050;2023-02-24T04:59:15;100329.44;;;22.68;37.28
76973;BME280;65907;53.640;10.050;2023-02-24T05:01:41;100326.81;;;22.68;37.05
76973;BME280;65907;53.640;10.050;2023-02-24T05:04:08;100316.63;;;22.65;37.17
76973;BME280;65907;53.640;10.050;2023-02-24T05:06:33;100309.56;;;22.66;37.11
76973;BME280;65907;53.640;10.050;2023-02-24T05:08:59;100306.44;;;22.62;36.89
76973;BME280;65907;53.640;10.050;2023-02-24T05:11:27;100301.88;;;22.64;37.01
76973;BME280;65907;53.640;10.050;2023-02-24T05:13:58;100297.00;;;22.69;37.06
76973;BME280;65907;53.640;10.050;2023-02-24T05:16:24;100294.81;;;22.65;36.94
76973;BME280;65907;53.640;10.050;2023-02-24T05:18:55;100289.81;;;22.71;37.03
76973;BME280;65907;53.640;10.050;2023-02-24T05:21:41;100288.78;;;22.64;37.04
76973;BME280;65907;53.640;10.050;2023-02-24T05:24:08;100277.44;;;22.63;37.22
76973;BME280;65907;53.640;10.050;2023-02-24T05:26:35;100269.22;;;22.76;36.94
76973;BME280;65907;53.640;10.050;2023-02-24T05:29:02;100265.56;;;22.69;37.10
76973;BME280;65907;53.640;10.050;2023-02-24T05:31:28;100257.63;;;22.79;37.11
76973;BME280;65907;53.640;10.050;2023-02-24T05:33:55;100258.72;;;22.76;37.00
76973;BME280;65907;53.640;10.050;2023-02-24T05:36:22;100251.78;;;22.67;36.95
76973;BME280;65907;53.640;10.050;2023-02-24T05:38:51;100250.63;;;22.70;36.81
76973;BME280;65907;53.640;10.050;2023-02-24T05:41:30;100246.69;;;22.66;36.98
76973;BME280;65907;53.640;10.050;2023-02-24T05:44:07;100237.69;;;22.68;37.30
76973;BME280;65907;53.640;10.050;2023-02-24T05:46:38;100238.38;;;22.70;34.74
76973;BME280;65907;53.640;10.050;2023-02-24T05:49:06;100234.69;;;22.27;36.34
76973;BME280;65907;53.640;10.050;2023-02-24T05:51:33;100224.94;;;22.19;35.94
76973;BME280;65907;53.640;10.050;2023-02-24T05:54:09;100221.50;;;22.18;35.59
76973;BME280;65907;53.640;10.050;2023-02-24T05:56:36;100222.56;;;22.26;35.54
76973;BME280;65907;53.640;10.050;2023-02-24T05:59:03;100210.97;;;22.28;35.25
76973;BME280;65907;53.640;10.050;2023-02-24T06:01:31;100208.34;;;22.28;35.53
76973;BME280;65907;53.640;10.050;2023-02-24T06:04:01;100207.56;;;22.36;35.40
76973;BME280;65907;53.640;10.050;2023-02-24T06:06:35;100197.28;;;22.16;36.32
76973;BME280;65907;53.640;10.050;2023-02-24T06:09:01;100206.72;;;21.99;36.28
76973;BME280;65907;53.640;10.050;2023-02-24T06:11:32;100193.44;;;22.11;36.17
76973;BME280;65907;53.640;10.050;2023-02-24T06:13:57;100193.88;;;22.24;36.23
76973;BME280;65907;53.640;10.050;2023-02-24T06:16:24;100183.34;;;22.34;36.35
76973;BME280;65907;53.640;10.050;2023-02-24T06:18:50;100172.78;;;22.44;36.14
76973;BME280;65907;53.640;10.050;2023-02-24T06:21:20;100169.34;;;22.43;35.36
76973;BME280;65907;53.640;10.050;2023-02-24T06:23:47;100163.88;;;22.37;35.47
76973;BME280;65907;53.640;10.050;2023-02-24T06:26:12;100159.41;;;22.47;35.58
76973;BME280;65907;53.640;10.050;2023-02-24T06:28:43;100152.50;;;22.46;35.39
76973;BME280;65907;53.640;10.050;2023-02-24T06:31:08;100150.84;;;22.45;35.77
76973;BME280;65907;53.640;10.050;2023-02-24T06:33:35;100144.28;;;22.41;35.88
76973;BME280;65907;53.640;10.050;2023-02-24T06:36:03;100146.38;;;22.55;35.78
76973;BME280;65907;53.640;10.050;2023-02-24T06:38:29;100145.72;;;22.53;36.24
76973;BME280;65907;53.640;10.050;2023-02-24T06:40:58;100144.00;;;22.08;35.24
76973;BME280;65907;53.640;10.050;2023-02-24T06:43:27;100137.72;;;22.18;35.69
76973;BME280;65907;53.640;10.050;2023-02-24T06:45:52;100133.97;;;22.21;36.22
76973;BME280;65907;53.640;10.050;2023-02-24T06:48:18;100136.53;;;21.95;36.22
76973;BME280;65907;53.640;10.050;2023-02-24T06:50:44;100127.81;;;22.12;35.63
76973;BME280;65907;53.640;10.050;2023-02-24T06:53:09;100120.88;;;22.21;35.38
76973;BME280;65907;53.640;10.050;2023-02-24T06:55:41;100120.19;;;22.19;35.30
76973;BME280;65907;53.640;10.050;2023-02-24T06:58:12;100122.06;;;22.27;35.22
76973;BME280;65907;53.640;10.050;2023-02-24T07:00:40;100118.81;;;22.33;35.55
76973;BME280;65907;53.640;10.050;2023-02-24T07:03:15;100122.19;;;22.43;35.25
76973;BME280;65907;53.640;10.050;2023-02-24T07:05:48;100120.69;;;22.41;35.19
76973;BME280;65907;53.640;10.050;2023-02-24T07:08:27;100122.34;;;22.42;34.93
76973;BME280;65907;53.640;10.050;2023-02-24T07:10:53;100118.75;;;22.43;34.59
76973;BME280;65907;53.640;10.050;2023-02-24T07:13:22;100112.13;;;22.30;35.06
76973;BME280;65907;53.640;10.050;2023-02-24T07:15:48;100110.47;;;22.29;34.97
76973;BME280;65907;53.640;10.050;2023-02-24T07:18:16;100103.72;;;22.27;35.06
76973;BME280;65907;53.640;10.050;2023-02-24T07:20:42;100101.34;;;22.33;35.07
76973;BME280;65907;53.640;10.050;2023-02-24T07:23:14;100083.31;;;22.30;35.23
76973;BME280;65907;53.640;10.050;2023-02-24T07:25:39;100097.50;;;22.28;35.14
76973;BME280;65907;53.640;10.050;2023-02-24T07:28:07;100085.19;;;22.20;35.12
76973;BME280;65907;53.640;10.050;2023-02-24T07:30:32;100081.22;;;22.16;35.01
76973;BME280;65907;53.640;10.050;2023-02-24T07:32:58;100082.16;;;22.33;35.00
76973;BME280;65907;53.640;10.050;2023-02-24T07:35:26;100077.53;;;22.27;34.81
76973;BME280;65907;53.640;10.050;2023-02-24T07:37:52;100072.81;;;22.48;35.05
76973;BME280;65907;53.640;10.050;2023-02-24T07:40:19;100077.19;;;22.22;35.74
76973;BME280;65907;53.640;10.050;2023-02-24T07:42:46;100072.81;;;22.30;35.09
76973;BME280;65907;53.640;10.050;2023-02-24T07:45:12;100065.31;;;22.35;34.64
76973;BME280;65907;53.640;10.050;2023-02-24T07:47:37;100064.13;;;22.30;34.38
76973;BME280;65907;53.640;10.050;2023-02-24T07:50:05;100057.50;;;22.44;34.95
76973;BME280;65907;53.640;10.050;2023-02-24T07:52:37;100055.38;;;22.39;35.09
76973;BME280;65907;53.640;10.050;2023-02-24T07:55:02;100048.13;;;22.33;35.02
76973;BME280;65907;53.640;10.050;2023-02-24T07:57:27;100040.22;;;22.25;34.85
76973;BME280;65907;53.640;10.050;2023-02-24T07:59:57;100039.91;;;22.28;35.30
76973;BME280;65907;53.640;10.050;2023-02-24T08:02:23;100032.72;;;22.03;35.45
76973;BME280;65907;53.640;10.050;2023-02-24T08:04:51;100032.09;;;22.10;35.49
76973;BME280;65907;53.640;10.050;2023-02-24T08:07:17;100031.13;;;22.11;35.05
76973;BME280;65907;53.640;10.050;2023-02-24T08:09:48;100026.84;;;22.10;35.26
76973;BME280;65907;53.640;10.050;2023-02-24T08:12:33;100026.50;;;22.04;34.84
76973;BME280;65907;53.640;10.050;2023-02-24T08:14:59;100015.81;;;21.98;35.26
76973;BME280;65907;53.640;10.050;2023-02-24T08:17:25;100014.56;;;22.10;35.14
76973;BME280;65907;53.640;10.050;2023-02-24T08:19:51;100013.44;;;22.13;34.88
76973;BME280;65907;53.640;10.050;2023-02-24T08:25:26;100000.19;;;22.14;34.72
76973;BME280;65907;53.640;10.050;2023-02-24T08:27:59;99997.97;;;22.19;34.59
76973;BME280;65907;53.640;10.050;2023-02-24T08:30:29;100000.63;;;22.28;34.89
76973;BME280;65907;53.640;10.050;2023-02-24T08:33:03;99996.34;;;22.27;34.97
76973;BME280;65907;53.640;10.050;2023-02-24T08:35:30;99997.44;;;22.16;35.09
76973;BME280;65907;53.640;10.050;2023-02-24T08:38:15;99986.34;;;22.22;34.89
76973;BME280;65907;53.640;10.050;2023-02-24T08:40:44;99989.84;;;22.04;35.03
76973;BME280;65907;53.640;10.050;2023-02-24T08:43:24;99975.97;;;22.12;35.07
76973;BME280;65907;53.640;10.050;2023-02-24T08:45:58;99983.16;;;22.10;35.32
76973;BME280;65907;53.640;10.050;2023-02-24T08:48:43;99982.66;;;22.06;34.82
76973;BME280;65907;53.640;10.050;2023-02-24T08:51:15;99979.25;;;22.14;35.14
76973;BME280;65907;53.640;10.050;2023-02-24T08:53:44;99971.38;;;22.14;34.89
76973;BME280;65907;53.640;10.050;2023-02-24T08:56:11;99973.19;;;22.14;34.73
76973;BME280;65907;53.640;10.050;2023-02-24T08:58:40;99966.28;;;22.04;36.17
76973;BME280;65907;53.640;10.050;2023-02-24T09:01:31;99963.94;;;22.28;34.26
76973;BME280;65907;53.640;10.050;2023-02-24T09:03:59;99955.94;;;22.03;34.81
76973;BME280;65907;53.640;10.050;2023-02-24T09:06:35;99951.13;;;22.16;34.34
76973;BME280;65907;53.640;10.050;2023-02-24T09:09:00;99941.13;;;22.12;33.88
76973;BME280;65907;53.640;10.050;2023-02-24T09:11:41;99940.41;;;22.36;34.16
76973;BME280;65907;53.640;10.050;2023-02-24T09:14:12;99939.06;;;22.50;34.27
76973;BME280;65907;53.640;10.050;2023-02-24T09:16:45;99926.13;;;22.57;33.72
76973;BME280;65907;53.640;10.050;2023-02-24T09:19:30;99928.75;;;22.57;33.54
76973;BME280;65907;53.640;10.050;2023-02-24T09:22:26;99923.47;;;22.22;33.59
76973;BME280;65907;53.640;10.050;2023-02-24T09:25:24;99925.56;;;22.10;33.18
76973;BME280;65907;53.640;10.050;2023-02-24T09:30:35;99904.50;;;21.67;32.79
76973;BME280;65907;53.640;10.050;2023-02-24T09:33:07;99908.47;;;21.71;32.73
76973;BME280;65907;53.640;10.050;2023-02-24T09:35:41;99901.22;;;21.65;32.89
76973;BME280;65907;53.640;10.050;2023-02-24T09:38:10;99896.03;;;21.73;32.74
76973;BME280;65907;53.640;10.050;2023-02-24T09:40:40;99900.97;;;21.58;32.90
76973;BME280;65907;53.640;10.050;2023-02-24T09:43:12;99884.84;;;21.63;32.62
76973;BME280;65907;53.640;10.050;2023-02-24T09:45:52;99891.66;;;21.74;32.26
76973;BME280;65907;53.640;10.050;2023-02-24T09:48:36;99883.81;;;21.74;32.58
76973;BME280;65907;53.640;10.050;2023-02-24T09:51:08;99864.03;;;21.80;32.14
76973;BME280;65907;53.640;10.050;2023-02-24T09:53:34;99881.00;;;21.75;32.48
76973;BME280;65907;53.640;10.050;2023-02-24T09:56:16;99876.19;;;21.44;33.02
76973;BME280;65907;53.640;10.050;2023-02-24T09:58:51;99863.06;;;21.18;33.82
76973;BME280;65907;53.640;10.050;2023-02-24T10:01:28;99874.88;;;21.22;33.06
76973;BME280;65907;53.640;10.050;2023-02-24T10:06:47;99866.75;;;21.25;32.69
76973;BME280;65907;53.640;10.050;2023-02-24T10:11:58;99853.88;;;21.32;32.92
76973;BME280;65907;53.640;10.050;2023-02-24T10:17:41;99850.66;;;21.38;32.87
76973;BME280;65907;53.640;10.050;2023-02-24T10:20:18;99843.69;;;21.47;33.81
76973;BME280;65907;53.640;10.050;2023-02-24T10:25:53;99832.06;;;21.68;32.45
76973;BME280;65907;53.640;10.050;2023-02-24T10:31:16;99817.34;;;22.44;32.61
76973;BME280;65907;53.640;10.050;2023-02-24T10:33:58;99804.97;;;22.63;32.54
76973;BME280;65907;53.640;10.050;2023-02-24T10:36:25;99805.97;;;22.70;32.67
76973;BME280;65907;53.640;10.050;2023-02-24T10:41:43;99800.09;;;22.93;32.44
76973;BME280;65907;53.640;10.050;2023-02-24T10:44:11;99783.06;;;22.89;32.90
76973;BME280;65907;53.640;10.050;2023-02-24T10:46:41;99779.59;;;22.80;32.59
76973;BME280;65907;53.640;10.050;2023-02-24T10:49:07;99771.72;;;22.88;32.84
76973;BME280;65907;53.640;10.050;2023-02-24T10:51:38;99769.59;;;23.00;32.82
76973;BME280;65907;53.640;10.050;2023-02-24T10:54:23;99756.47;;;23.17;32.76
76973;BME280;65907;53.640;10.050;2023-02-24T10:56:57;99762.22;;;23.12;33.11
76973;BME280;65907;53.640;10.050;2023-02-24T11:02:35;99747.31;;;23.04;33.54
76973;BME280;65907;53.640;10.050;2023-02-24T11:05:20;99729.13;;;22.95;33.38
76973;BME280;65907;53.640;10.050;2023-02-24T11:08:21;99724.34;;;23.06;33.44
76973;BME280;65907;53.640;10.050;2023-02-24T11:11:24;99715.53;;;23.08;33.61
76973;BME280;65907;53.640;10.050;2023-02-24T11:13:57;99714.19;;;23.20;33.52
76973;BME280;65907;53.640;10.050;2023-02-24T11:19:34;99691.47;;;22.96;34.17
76973;BME280;65907;53.640;10.050;2023-02-24T11:22:01;99678.31;;;23.12;34.04
76973;BME280;65907;53.640;10.050;2023-02-24T11:24:28;99689.25;;;21.22;33.21
76973;BME280;65907;53.640;10.050;2023-02-24T11:26:54;99695.03;;;20.27;34.89
76973;BME280;65907;53.640;10.050;2023-02-24T11:29:37;99681.34;;;19.97;34.95
76973;BME280;65907;53.640;10.050;2023-02-24T11:42:15;99654.59;;;19.95;35.81
76973;BME280;65907;53.640;10.050;2023-02-24T11:47:31;99636.72;;;19.72;34.63
76973;BME280;65907;53.640;10.050;2023-02-24T11:52:56;99629.13;;;21.22;32.89
76973;BME280;65907;53.640;10.050;2023-02-24T11:55:28;99656.19;;;21.13;32.83
76973;BME280;65907;53.640;10.050;2023-02-24T11:57:58;99619.34;;;21.24;32.43
76973;BME280;65907;53.640;10.050;2023-02-24T12:00:25;99611.88;;;21.03;34.31
76973;BME280;65907;53.640;10.050;2023-02-24T12:05:39;99622.50;;;21.44;31.97
76973;BME280;65907;53.640;10.050;2023-02-24T12:08:27;99600.13;;;21.07;32.34
76973;BME280;65907;53.640;10.050;2023-02-24T12:10:59;99621.47;;;20.94;32.99
76973;BME280;65907;53.640;10.050;2023-02-24T12:18:57;99585.16;;;21.17;32.67
76973;BME280;65907;53.640;10.050;2023-02-24T12:21:36;99574.97;;;21.57;32.58
76973;BME280;65907;53.640;10.050;2023-02-24T12:24:04;99569.50;;;22.10;32.26
76973;BME280;65907;53.640;10.050;2023-02-24T12:34:01;99560.28;;;22.72;31.93
76973;BME280;65907;53.640;10.050;2023-02-24T12:39:00;99551.28;;;22.67;32.10
76973;BME280;65907;53.640;10.050;2023-02-24T12:46:45;99548.69;;;23.06;32.34
76973;BME280;65907;53.640;10.050;2023-02-24T12:54:19;99542.94;;;23.11;32.27
76973;BME280;65907;53.640;10.050;2023-02-24T12:59:32;99535.63;;;22.00;34.43
76973;BME280;65907;53.640;10.050;2023-02-24T13:12:32;99508.31;;;22.11;34.46
76973;BME280;65907;53.640;10.050;2023-02-24T13:15:01;99504.53;;;22.22;34.34
76973;BME280;65907;53.640;10.050;2023-02-24T13:17:27;99509.75;;;22.22;34.51
76973;BME280;65907;53.640;10.050;2023-02-24T13:19:54;99500.44;;;22.28;33.98
76973;BME280;65907;53.640;10.050;2023-02-24T13:27:19;99486.50;;;22.52;34.09
76973;BME280;65907;53.640;10.050;2023-02-24T13:29:51;99484.50;;;22.46;34.01
76973;BME280;65907;53.640;10.050;2023-02-24T13:34:58;99474.84;;;22.55;33.67
76973;BME280;65907;53.640;10.050;2023-02-24T13:37:29;99470.09;;;22.58;34.41
76973;BME280;65907;53.640;10.050;2023-02-24T13:39:54;99465.06;;;22.48;34.24
76973;BME280;65907;53.640;10.050;2023-02-24T13:42:29;99473.03;;;22.63;34.11
76973;BME280;65907;53.640;10.050;2023-02-24T13:47:35;99465.91;;;22.49;33.81
76973;BME280;65907;53.640;10.050;2023-02-24T13:52:57;99454.75;;;22.39;34.55
76973;BME280;65907;53.640;10.050;2023-02-24T14:03:00;99443.06;;;21.76;35.83
76973;BME280;65907;53.640;10.050;2023-02-24T14:05:27;99440.28;;;21.86;36.08
76973;BME280;65907;53.640;10.050;2023-02-24T14:07:53;99431.06;;;22.24;35.28
76973;BME280;65907;53.640;10.050;2023-02-24T14:10:20;99425.53;;;22.10;35.21
76973;BME280;65907;53.640;10.050;2023-02-24T14:12:49;99427.50;;;22.08;35.59
76973;BME280;65907;53.640;10.050;2023-02-24T14:15:17;99420.63;;;22.15;35.46
76973;BME280;65907;53.640;10.050;2023-02-24T14:17:52;99409.13;;;22.25;35.05
76973;BME280;65907;53.640;10.050;2023-02-24T14:20:18;99408.81;;;22.11;34.84
76973;BME280;65907;53.640;10.050;2023-02-24T14:22:46;99415.38;;;21.16;33.91
76973;BME280;65907;53.640;10.050;2023-02-24T14:25:14;99409.00;;;20.94;34.55
76973;BME280;65907;53.640;10.050;2023-02-24T14:27:41;99395.16;;;21.59;34.09
76973;BME280;65907;53.640;10.050;2023-02-24T14:30:07;99393.34;;;21.93;34.79
76973;BME280;65907;53.640;10.050;2023-02-24T14:32:44;99397.06;;;22.07;34.41
76973;BME280;65907;53.640;10.050;2023-02-24T14:38:16;99393.03;;;22.36;34.48
76973;BME280;65907;53.640;10.050;2023-02-24T14:40:50;99395.28;;;22.56;34.29
76973;BME280;65907;53.640;10.050;2023-02-24T14:43:15;99387.22;;;22.66;33.58
76973;BME280;65907;53.640;10.050;2023-02-24T14:45:46;99389.66;;;22.67;34.40
76973;BME280;65907;53.640;10.050;2023-02-24T14:48:27;99381.69;;;22.60;34.48
76973;BME280;65907;53.640;10.050;2023-02-24T14:51:16;99372.97;;;22.68;34.15
76973;BME280;65907;53.640;10.050;2023-02-24T14:53:41;99364.09;;;22.69;34.39
76973;BME280;65907;53.640;10.050;2023-02-24T14:56:09;99371.31;;;22.67;34.05
76973;BME280;65907;53.640;10.050;2023-02-24T14:58:43;99360.75;;;22.44;35.94
76973;BME280;65907;53.640;10.050;2023-02-24T15:03:46;99348.75;;;22.18;37.92
76973;BME280;65907;53.640;10.050;2023-02-24T15:06:18;99344.47;;;22.25;38.13
76973;BME280;65907;53.640;10.050;2023-02-24T15:08:47;99338.03;;;22.04;39.22
76973;BME280;65907;53.640;10.050;2023-02-24T15:13:45;99344.09;;;21.88;41.01
76973;BME280;65907;53.640;10.050;2023-02-24T15:16:13;99347.53;;;22.37;39.76
76973;BME280;65907;53.640;10.050;2023-02-24T15:18:43;99344.00;;;22.61;39.84
76973;BME280;65907;53.640;10.050;2023-02-24T15:21:32;99338.91;;;22.28;40.53
76973;BME280;65907;53.640;10.050;2023-02-24T15:24:46;99333.78;;;22.35;40.22
76973;BME280;65907;53.640;10.050;2023-02-24T15:26:51;99328.84;;;22.80;38.84
76973;BME280;65907;53.640;10.050;2023-02-24T15:29:20;99319.31;;;23.02;38.30
76973;BME280;65907;53.640;10.050;2023-02-24T15:31:52;99321.28;;;23.24;38.16
76973;BME280;65907;53.640;10.050;2023-02-24T15:34:32;99324.38;;;23.27;38.11
76973;BME280;65907;53.640;10.050;2023-02-24T15:37:00;99312.59;;;23.23;38.24
76973;BME280;65907;53.640;10.050;2023-02-24T15:39:27;99309.75;;;23.33;37.96